CheckWX is a tool to help pilots better visualize weather data.  It is not intended as a substitute for an official pre-flight weather briefing.

22:25:13 UTC

M08 METAR
William L Whitehurst Field Airport
Bolivar, Tennessee, USA
Current

10 mins ago

KM08 202215Z AUTO 27003KT 10SM CLR 33/23 A2994 RMK A01
Observed
Jul-20 @ 22:15 UTC
Wind
  • 270° at 3 KTS
Visibility
10 SM
Flight Rules
VFR
Cloud Levels
  • Clear skies
Temperature
33°C / 91°F
Dewpoint
23°C / 73°F
Heat Index
38°C / 100°F
Humidity
56%
Altimeter
29.94" Hg
Pressure
1013.92 hPa
Previous

30 mins ago

KM08 202155Z AUTO 00000KT 10SM FEW042 33/24 A2994 RMK A01
Observed
Jul-20 @ 21:55 UTC
Visibility
10 SM
Flight Rules
VFR
Cloud Levels
  • Few at 4,200' AGL
Temperature
33°C / 91°F
Dewpoint
24°C / 75°F
Heat Index
39°C / 102°F
Humidity
59%
Altimeter
29.94" Hg
Pressure
1013.92 hPa
Previous

50 mins ago

KM08 202135Z AUTO 22007KT 10SM FEW042 33/24 A2995 RMK A01
Observed
Jul-20 @ 21:35 UTC
Wind
  • 220° at 7 KTS
Visibility
10 SM
Flight Rules
VFR
Cloud Levels
  • Few at 4,200' AGL
Temperature
33°C / 91°F
Dewpoint
24°C / 75°F
Heat Index
39°C / 102°F
Humidity
59%
Altimeter
29.95" Hg
Pressure
1014.22 hPa